sensor_id;sensor_type;location;lat;lon;timestamp;P1;durP1;ratioP1;P2;durP2;ratioP2
15474;SDS011;7839;50.462;9.678;2022-12-07T00:05:16;2.88;;;2.67;;
15474;SDS011;7839;50.462;9.678;2022-12-07T00:11:56;3.07;;;2.87;;
15474;SDS011;7839;50.462;9.678;2022-12-07T00:18:37;3.00;;;2.80;;
15474;SDS011;7839;50.462;9.678;2022-12-07T00:25:19;3.20;;;2.90;;
15474;SDS011;7839;50.462;9.678;2022-12-07T00:31:59;3.40;;;3.10;;
15474;SDS011;7839;50.462;9.678;2022-12-07T00:38:40;3.37;;;3.07;;
15474;SDS011;7839;50.462;9.678;2022-12-07T00:45:20;3.30;;;3.03;;
15474;SDS011;7839;50.462;9.678;2022-12-07T00:52:00;3.50;;;3.20;;
15474;SDS011;7839;50.462;9.678;2022-12-07T00:58:41;4.77;;;4.23;;
15474;SDS011;7839;50.462;9.678;2022-12-07T01:05:22;4.03;;;3.73;;
15474;SDS011;7839;50.462;9.678;2022-12-07T01:12:02;4.80;;;4.40;;
15474;SDS011;7839;50.462;9.678;2022-12-07T01:18:45;5.03;;;4.30;;
15474;SDS011;7839;50.462;9.678;2022-12-07T01:25:26;4.80;;;4.40;;
15474;SDS011;7839;50.462;9.678;2022-12-07T01:32:06;5.40;;;4.90;;
15474;SDS011;7839;50.462;9.678;2022-12-07T01:38:47;5.30;;;4.80;;
15474;SDS011;7839;50.462;9.678;2022-12-07T01:52:19;5.70;;;5.20;;
15474;SDS011;7839;50.462;9.678;2022-12-07T01:59:02;5.47;;;4.97;;
15474;SDS011;7839;50.462;9.678;2022-12-07T02:05:43;5.97;;;5.47;;
15474;SDS011;7839;50.462;9.678;2022-12-07T02:12:24;5.20;;;4.77;;
15474;SDS011;7839;50.462;9.678;2022-12-07T02:32:58;5.80;;;5.20;;
15474;SDS011;7839;50.462;9.678;2022-12-07T02:39:50;6.30;;;5.70;;
15474;SDS011;7839;50.462;9.678;2022-12-07T02:46:42;5.90;;;5.40;;
15474;SDS011;7839;50.462;9.678;2022-12-07T03:00:14;5.77;;;5.27;;
15474;SDS011;7839;50.462;9.678;2022-12-07T03:07:14;5.77;;;5.27;;
15474;SDS011;7839;50.462;9.678;2022-12-07T03:20:51;6.03;;;5.27;;
15474;SDS011;7839;50.462;9.678;2022-12-07T03:27:34;6.33;;;5.73;;
15474;SDS011;7839;50.462;9.678;2022-12-07T03:34:24;7.40;;;5.23;;
15474;SDS011;7839;50.462;9.678;2022-12-07T03:41:11;5.90;;;5.00;;
15474;SDS011;7839;50.462;9.678;2022-12-07T03:47:59;5.97;;;5.37;;
15474;SDS011;7839;50.462;9.678;2022-12-07T03:54:44;5.23;;;4.73;;
15474;SDS011;7839;50.462;9.678;2022-12-07T04:01:25;6.10;;;5.50;;
15474;SDS011;7839;50.462;9.678;2022-12-07T04:08:06;5.65;;;5.10;;
15474;SDS011;7839;50.462;9.678;2022-12-07T04:14:46;5.27;;;4.77;;
15474;SDS011;7839;50.462;9.678;2022-12-07T04:21:26;6.07;;;5.47;;
15474;SDS011;7839;50.462;9.678;2022-12-07T04:28:07;5.47;;;4.93;;
15474;SDS011;7839;50.462;9.678;2022-12-07T04:34:47;5.97;;;5.37;;
15474;SDS011;7839;50.462;9.678;2022-12-07T04:41:27;5.07;;;4.57;;
15474;SDS011;7839;50.462;9.678;2022-12-07T04:48:08;5.07;;;4.60;;
15474;SDS011;7839;50.462;9.678;2022-12-07T04:54:48;6.63;;;5.60;;
15474;SDS011;7839;50.462;9.678;2022-12-07T05:01:28;7.17;;;5.23;;
15474;SDS011;7839;50.462;9.678;2022-12-07T05:08:09;6.23;;;5.50;;
15474;SDS011;7839;50.462;9.678;2022-12-07T05:14:49;5.60;;;5.10;;
15474;SDS011;7839;50.462;9.678;2022-12-07T05:21:30;6.30;;;5.70;;
15474;SDS011;7839;50.462;9.678;2022-12-07T05:28:10;5.50;;;5.00;;
15474;SDS011;7839;50.462;9.678;2022-12-07T05:34:50;5.60;;;5.00;;
15474;SDS011;7839;50.462;9.678;2022-12-07T05:41:31;5.47;;;4.97;;
15474;SDS011;7839;50.462;9.678;2022-12-07T05:48:29;5.33;;;4.83;;
15474;SDS011;7839;50.462;9.678;2022-12-07T05:55:10;5.60;;;5.10;;
15474;SDS011;7839;50.462;9.678;2022-12-07T06:01:51;5.17;;;4.67;;
15474;SDS011;7839;50.462;9.678;2022-12-07T06:08:32;5.60;;;5.10;;
15474;SDS011;7839;50.462;9.678;2022-12-07T06:15:12;5.60;;;5.10;;
15474;SDS011;7839;50.462;9.678;2022-12-07T06:21:54;4.90;;;4.50;;
15474;SDS011;7839;50.462;9.678;2022-12-07T06:28:34;5.43;;;4.93;;
15474;SDS011;7839;50.462;9.678;2022-12-07T06:35:15;5.23;;;4.53;;
15474;SDS011;7839;50.462;9.678;2022-12-07T06:41:55;5.90;;;5.40;;
15474;SDS011;7839;50.462;9.678;2022-12-07T06:48:35;6.50;;;5.73;;
15474;SDS011;7839;50.462;9.678;2022-12-07T06:55:16;5.13;;;4.73;;
15474;SDS011;7839;50.462;9.678;2022-12-07T07:01:56;5.85;;;5.25;;
15474;SDS011;7839;50.462;9.678;2022-12-07T07:08:37;5.27;;;4.77;;
15474;SDS011;7839;50.462;9.678;2022-12-07T07:15:17;4.97;;;4.33;;
15474;SDS011;7839;50.462;9.678;2022-12-07T07:21:59;5.27;;;4.77;;
15474;SDS011;7839;50.462;9.678;2022-12-07T07:28:39;5.90;;;5.17;;
15474;SDS011;7839;50.462;9.678;2022-12-07T07:35:21;4.90;;;4.50;;
15474;SDS011;7839;50.462;9.678;2022-12-07T07:42:01;5.43;;;4.93;;
15474;SDS011;7839;50.462;9.678;2022-12-07T07:48:41;5.00;;;4.50;;
15474;SDS011;7839;50.462;9.678;2022-12-07T07:55:22;5.23;;;4.70;;
15474;SDS011;7839;50.462;9.678;2022-12-07T08:02:03;5.00;;;4.60;;
15474;SDS011;7839;50.462;9.678;2022-12-07T08:08:43;4.57;;;4.17;;
15474;SDS011;7839;50.462;9.678;2022-12-07T08:15:24;4.27;;;3.90;;
15474;SDS011;7839;50.462;9.678;2022-12-07T08:22:05;4.20;;;3.80;;
15474;SDS011;7839;50.462;9.678;2022-12-07T08:28:45;4.10;;;3.70;;
15474;SDS011;7839;50.462;9.678;2022-12-07T08:35:26;4.43;;;4.03;;
15474;SDS011;7839;50.462;9.678;2022-12-07T08:42:07;4.50;;;4.10;;
15474;SDS011;7839;50.462;9.678;2022-12-07T08:48:57;4.33;;;3.93;;
15474;SDS011;7839;50.462;9.678;2022-12-07T08:55:41;4.27;;;3.87;;
15474;SDS011;7839;50.462;9.678;2022-12-07T09:02:21;3.83;;;3.53;;
15474;SDS011;7839;50.462;9.678;2022-12-07T09:09:02;4.30;;;3.90;;
15474;SDS011;7839;50.462;9.678;2022-12-07T09:15:42;4.27;;;3.87;;
15474;SDS011;7839;50.462;9.678;2022-12-07T09:22:23;4.80;;;4.30;;
15474;SDS011;7839;50.462;9.678;2022-12-07T09:29:04;4.73;;;4.30;;
15474;SDS011;7839;50.462;9.678;2022-12-07T09:35:48;4.50;;;4.10;;
15474;SDS011;7839;50.462;9.678;2022-12-07T09:42:32;4.63;;;3.90;;
15474;SDS011;7839;50.462;9.678;2022-12-07T09:49:18;4.73;;;4.07;;
15474;SDS011;7839;50.462;9.678;2022-12-07T09:55:59;4.73;;;4.23;;
15474;SDS011;7839;50.462;9.678;2022-12-07T10:02:41;4.47;;;4.07;;
15474;SDS011;7839;50.462;9.678;2022-12-07T10:09:22;3.77;;;3.47;;
15474;SDS011;7839;50.462;9.678;2022-12-07T10:16:05;4.40;;;3.80;;
15474;SDS011;7839;50.462;9.678;2022-12-07T10:29:41;3.43;;;3.13;;
15474;SDS011;7839;50.462;9.678;2022-12-07T10:36:33;3.97;;;3.50;;
15474;SDS011;7839;50.462;9.678;2022-12-07T10:50:01;3.70;;;3.40;;
15474;SDS011;7839;50.462;9.678;2022-12-07T11:17:41;3.20;;;2.90;;
15474;SDS011;7839;50.462;9.678;2022-12-07T11:24:43;2.73;;;2.50;;
15474;SDS011;7839;50.462;9.678;2022-12-07T11:45:32;2.90;;;2.70;;
15474;SDS011;7839;50.462;9.678;2022-12-07T11:59:12;3.00;;;2.70;;
15474;SDS011;7839;50.462;9.678;2022-12-07T12:05:56;2.80;;;2.27;;
15474;SDS011;7839;50.462;9.678;2022-12-07T12:12:44;2.20;;;2.00;;
15474;SDS011;7839;50.462;9.678;2022-12-07T12:19:56;2.40;;;2.20;;
15474;SDS011;7839;50.462;9.678;2022-12-07T12:26:33;2.00;;;1.80;;
15474;SDS011;7839;50.462;9.678;2022-12-07T12:33:21;2.27;;;2.07;;
15474;SDS011;7839;50.462;9.678;2022-12-07T12:40:48;2.80;;;1.93;;
15474;SDS011;7839;50.462;9.678;2022-12-07T12:47:04;3.20;;;2.00;;
15474;SDS011;7839;50.462;9.678;2022-12-07T12:53:44;3.10;;;2.10;;
15474;SDS011;7839;50.462;9.678;2022-12-07T13:00:25;2.10;;;1.90;;
15474;SDS011;7839;50.462;9.678;2022-12-07T13:07:10;2.30;;;1.93;;
15474;SDS011;7839;50.462;9.678;2022-12-07T13:13:51;1.80;;;1.70;;
15474;SDS011;7839;50.462;9.678;2022-12-07T13:20:44;2.27;;;2.07;;
15474;SDS011;7839;50.462;9.678;2022-12-07T13:27:25;2.20;;;1.83;;
15474;SDS011;7839;50.462;9.678;2022-12-07T13:47:53;2.13;;;1.93;;
15474;SDS011;7839;50.462;9.678;2022-12-07T13:54:42;2.30;;;2.10;;
15474;SDS011;7839;50.462;9.678;2022-12-07T14:01:26;1.60;;;1.50;;
15474;SDS011;7839;50.462;9.678;2022-12-07T14:14:52;2.17;;;1.93;;
15474;SDS011;7839;50.462;9.678;2022-12-07T14:21:34;2.83;;;2.33;;
15474;SDS011;7839;50.462;9.678;2022-12-07T14:28:31;2.70;;;2.30;;
15474;SDS011;7839;50.462;9.678;2022-12-07T14:35:12;2.20;;;2.00;;
15474;SDS011;7839;50.462;9.678;2022-12-07T14:41:53;2.53;;;2.00;;
15474;SDS011;7839;50.462;9.678;2022-12-07T14:48:33;2.30;;;2.10;;
15474;SDS011;7839;50.462;9.678;2022-12-07T14:55:32;2.93;;;2.27;;
15474;SDS011;7839;50.462;9.678;2022-12-07T15:02:14;2.20;;;2.00;;
15474;SDS011;7839;50.462;9.678;2022-12-07T15:08:54;2.13;;;1.80;;
15474;SDS011;7839;50.462;9.678;2022-12-07T15:15:35;2.80;;;2.17;;
15474;SDS011;7839;50.462;9.678;2022-12-07T15:22:15;2.13;;;1.93;;
15474;SDS011;7839;50.462;9.678;2022-12-07T15:28:56;3.20;;;1.73;;
15474;SDS011;7839;50.462;9.678;2022-12-07T15:35:40;1.90;;;1.70;;
15474;SDS011;7839;50.462;9.678;2022-12-07T15:42:20;2.60;;;1.97;;
15474;SDS011;7839;50.462;9.678;2022-12-07T15:49:01;1.70;;;1.60;;
15474;SDS011;7839;50.462;9.678;2022-12-07T15:55:42;2.20;;;2.00;;
15474;SDS011;7839;50.462;9.678;2022-12-07T16:02:26;3.13;;;2.10;;
15474;SDS011;7839;50.462;9.678;2022-12-07T16:09:07;2.50;;;1.67;;
15474;SDS011;7839;50.462;9.678;2022-12-07T16:15:47;2.13;;;1.90;;
15474;SDS011;7839;50.462;9.678;2022-12-07T16:22:27;1.63;;;1.53;;
15474;SDS011;7839;50.462;9.678;2022-12-07T16:29:10;2.73;;;1.90;;
15474;SDS011;7839;50.462;9.678;2022-12-07T16:35:50;1.80;;;1.70;;
15474;SDS011;7839;50.462;9.678;2022-12-07T16:42:31;1.80;;;1.60;;
15474;SDS011;7839;50.462;9.678;2022-12-07T16:49:13;2.50;;;1.90;;
15474;SDS011;7839;50.462;9.678;2022-12-07T16:55:53;2.27;;;2.07;;
15474;SDS011;7839;50.462;9.678;2022-12-07T17:02:33;2.03;;;1.80;;
15474;SDS011;7839;50.462;9.678;2022-12-07T17:09:14;3.53;;;2.20;;
15474;SDS011;7839;50.462;9.678;2022-12-07T17:16:03;2.40;;;2.13;;
15474;SDS011;7839;50.462;9.678;2022-12-07T17:29:27;3.40;;;2.47;;
15474;SDS011;7839;50.462;9.678;2022-12-07T17:36:15;3.70;;;2.57;;
15474;SDS011;7839;50.462;9.678;2022-12-07T17:42:56;3.03;;;2.37;;
15474;SDS011;7839;50.462;9.678;2022-12-07T17:49:36;3.73;;;2.60;;
15474;SDS011;7839;50.462;9.678;2022-12-07T17:56:16;3.33;;;2.43;;
15474;SDS011;7839;50.462;9.678;2022-12-07T18:02:57;3.03;;;2.57;;
15474;SDS011;7839;50.462;9.678;2022-12-07T18:09:37;2.67;;;2.47;;
15474;SDS011;7839;50.462;9.678;2022-12-07T18:16:18;2.40;;;2.00;;
15474;SDS011;7839;50.462;9.678;2022-12-07T18:23:00;2.30;;;2.10;;
15474;SDS011;7839;50.462;9.678;2022-12-07T18:29:40;2.30;;;2.10;;
15474;SDS011;7839;50.462;9.678;2022-12-07T18:36:21;2.80;;;2.17;;
15474;SDS011;7839;50.462;9.678;2022-12-07T18:43:01;3.03;;;2.30;;
15474;SDS011;7839;50.462;9.678;2022-12-07T18:49:41;4.07;;;2.60;;
15474;SDS011;7839;50.462;9.678;2022-12-07T18:56:22;3.20;;;2.13;;
15474;SDS011;7839;50.462;9.678;2022-12-07T19:03:03;2.60;;;2.40;;
15474;SDS011;7839;50.462;9.678;2022-12-07T19:09:43;2.80;;;2.50;;
15474;SDS011;7839;50.462;9.678;2022-12-07T19:16:23;2.50;;;2.13;;
15474;SDS011;7839;50.462;9.678;2022-12-07T19:23:03;2.70;;;2.40;;
15474;SDS011;7839;50.462;9.678;2022-12-07T19:29:44;2.70;;;2.50;;
15474;SDS011;7839;50.462;9.678;2022-12-07T19:36:25;2.97;;;2.57;;
15474;SDS011;7839;50.462;9.678;2022-12-07T19:43:05;3.73;;;2.70;;
15474;SDS011;7839;50.462;9.678;2022-12-07T19:49:45;3.23;;;2.33;;
15474;SDS011;7839;50.462;9.678;2022-12-07T19:56:27;3.70;;;2.80;;
15474;SDS011;7839;50.462;9.678;2022-12-07T20:03:07;3.50;;;3.13;;
15474;SDS011;7839;50.462;9.678;2022-12-07T20:09:48;4.63;;;3.13;;
15474;SDS011;7839;50.462;9.678;2022-12-07T20:16:29;3.90;;;3.20;;
15474;SDS011;7839;50.462;9.678;2022-12-07T20:23:09;4.70;;;3.30;;
15474;SDS011;7839;50.462;9.678;2022-12-07T20:29:49;3.47;;;3.17;;
15474;SDS011;7839;50.462;9.678;2022-12-07T20:36:31;3.92;;;3.30;;
15474;SDS011;7839;50.462;9.678;2022-12-07T20:43:11;3.07;;;2.77;;
15474;SDS011;7839;50.462;9.678;2022-12-07T20:49:51;5.37;;;3.27;;
15474;SDS011;7839;50.462;9.678;2022-12-07T20:56:32;4.00;;;3.60;;
15474;SDS011;7839;50.462;9.678;2022-12-07T21:03:12;3.50;;;3.20;;
15474;SDS011;7839;50.462;9.678;2022-12-07T21:09:52;3.63;;;3.10;;
15474;SDS011;7839;50.462;9.678;2022-12-07T21:16:34;3.57;;;3.20;;
15474;SDS011;7839;50.462;9.678;2022-12-07T21:23:14;2.60;;;2.40;;
15474;SDS011;7839;50.462;9.678;2022-12-07T21:29:54;3.93;;;2.73;;
15474;SDS011;7839;50.462;9.678;2022-12-07T21:36:35;3.17;;;2.87;;
15474;SDS011;7839;50.462;9.678;2022-12-07T21:43:15;3.57;;;2.80;;
15474;SDS011;7839;50.462;9.678;2022-12-07T21:49:55;2.70;;;2.50;;
15474;SDS011;7839;50.462;9.678;2022-12-07T21:56:36;2.87;;;2.57;;
15474;SDS011;7839;50.462;9.678;2022-12-07T22:03:17;3.00;;;2.80;;
15474;SDS011;7839;50.462;9.678;2022-12-07T22:09:58;2.97;;;2.67;;
15474;SDS011;7839;50.462;9.678;2022-12-07T22:16:39;3.70;;;2.87;;
15474;SDS011;7839;50.462;9.678;2022-12-07T22:23:19;2.77;;;2.57;;
15474;SDS011;7839;50.462;9.678;2022-12-07T22:30:00;3.47;;;2.60;;
15474;SDS011;7839;50.462;9.678;2022-12-07T22:36:40;3.43;;;3.13;;
15474;SDS011;7839;50.462;9.678;2022-12-07T22:43:21;3.27;;;2.90;;
15474;SDS011;7839;50.462;9.678;2022-12-07T22:50:01;3.57;;;3.27;;
15474;SDS011;7839;50.462;9.678;2022-12-07T22:56:44;2.87;;;2.60;;
15474;SDS011;7839;50.462;9.678;2022-12-07T23:03:24;3.13;;;2.60;;
15474;SDS011;7839;50.462;9.678;2022-12-07T23:10:05;2.63;;;2.43;;
15474;SDS011;7839;50.462;9.678;2022-12-07T23:16:45;3.17;;;2.70;;
15474;SDS011;7839;50.462;9.678;2022-12-07T23:23:26;3.40;;;2.60;;
15474;SDS011;7839;50.462;9.678;2022-12-07T23:30:06;2.80;;;2.60;;
15474;SDS011;7839;50.462;9.678;2022-12-07T23:36:48;3.17;;;2.87;;
15474;SDS011;7839;50.462;9.678;2022-12-07T23:43:28;2.63;;;2.43;;
15474;SDS011;7839;50.462;9.678;2022-12-07T23:50:08;2.90;;;2.30;;
15474;SDS011;7839;50.462;9.678;2022-12-07T23:56:49;2.53;;;2.30;;
